Latest Weather Observations for Fawkner Beacon

IDV60901

Issued at 1:21 pm EST Saturday 4 July 2015 (issued every 10 minutes, with the page automatically refreshed every 10 minutes)

About weather observations | Map of Melbourne area stations | Latest observations for Melbourne area | Other Formats
Station Details ID: 086376 Name: FAWKNER BEACON Lat: -37.91 Lon: 144.93 Height: 17.0 m
Data from the previous 72 hours. | See also: Recent months for locations in Victoria
Date/Time
EST
Tmp

°C
App
Tmp
°C
Dew
Point
°C
Rel
Hum
%
Delta-T

°C
Wind Press
QNH
hPa
Press
MSL
hPa
Rain
since
9 am
mm
Dir
 
Spd
km/h
Gust
km/h
Spd
kts
Gust
kts
04/01:00pm - - - - - N 30 35 16 19 - - -
04/12:30pm - - - - - N 30 32 16 17 - - -
04/12:00pm - - - - - N 28 32 15 17 - - -
04/11:30am - - - - - N 28 32 15 17 - - -
04/11:00am - - - - - N 28 35 15 19 - - -
04/10:30am - - - - - N 30 35 16 19 - - -
04/10:00am - - - - - N 28 32 15 17 - - -
04/09:30am - - - - - N 30 35 16 19 - - -
04/09:00am - - - - - N 32 35 17 19 - - -
04/08:30am - - - - - N 30 33 16 18 - - -
04/08:00am - - - - - N 30 33 16 18 - - -
04/07:30am - - - - - NNW 28 33 15 18 - - -
04/07:00am - - - - - N 28 33 15 18 - - -
04/06:30am - - - - - NNW 26 30 14 16 - - -
04/06:00am - - - - - NNW 28 33 15 18 - - -
04/05:30am - - - - - NNW 28 33 15 18 - - -
04/05:00am - - - - - NNW 30 35 16 19 - - -
04/04:30am - - - - - NNW 28 32 15 17 - - -
04/04:00am - - - - - N 26 30 14 16 - - -
04/03:30am - - - - - N 28 32 15 17 - - -
04/03:00am - - - - - NNW 24 28 13 15 - - -
04/02:30am - - - - - NNW 22 26 12 14 - - -
04/02:00am - - - - - NW 20 24 11 13 - - -
04/01:30am - - - - - NW 22 26 12 14 - - -
04/01:00am - - - - - NW 26 30 14 16 - - -
04/12:30am - - - - - NW 26 32 14 17 - - -
04/12:00am - - - - - NNW 26 30 14 16 - - -
 
Date/Time
EST
Tmp

°C
App
Tmp
°C
Dew
Point
°C
Rel
Hum
%
Delta-T

°C
Wind Press
QNH
hPa
Press
MSL
hPa
Rain
since
9 am
mm
Dir
 
Spd
km/h
Gust
km/h
Spd
kts
Gust
kts
03/11:30pm - - - - - NNW 26 30 14 16 - - -
03/11:00pm - - - - - NW 26 30 14 16 - - -
03/10:30pm - - - - - NW 22 26 12 14 - - -
03/10:00pm - - - - - NW 20 24 11 13 - - -
03/09:30pm - - - - - NNW 17 22 9 12 - - -
03/09:00pm - - - - - WNW 19 22 10 12 - - -
03/08:30pm - - - - - WNW 15 20 8 11 - - -
03/08:00pm - - - - - W 15 22 8 12 - - -
03/07:30pm - - - - - W 20 24 11 13 - - -
03/07:00pm - - - - - WSW 22 28 12 15 - - -
03/06:30pm - - - - - W 19 24 10 13 - - -
03/06:00pm - - - - - W 22 28 12 15 - - -
03/05:30pm - - - - - W 24 30 13 16 - - -
03/05:00pm - - - - - WSW 20 26 11 14 - - -
03/04:30pm - - - - - W 22 26 12 14 - - -
03/04:00pm - - - - - W 28 30 15 16 - - -
03/03:30pm - - - - - WSW 26 30 14 16 - - -
03/03:00pm - - - - - WSW 20 26 11 14 - - -
03/02:30pm - - - - - SW 11 15 6 8 - - -
03/02:00pm - - - - - WSW 15 17 8 9 - - -
03/01:30pm - - - - - W 11 17 6 9 - - -
03/01:00pm - - - - - WNW 11 17 6 9 - - -
03/12:30pm - - - - - WNW 6 11 3 6 - - -
03/12:00pm - - - - - NW 7 11 4 6 - - -
03/11:30am - - - - - NW 9 13 5 7 - - -
03/11:00am - - - - - NW 11 13 6 7 - - -
03/10:30am - - - - - WNW 11 17 6 9 - - -
03/10:00am - - - - - NW 13 17 7 9 - - -
03/09:30am - - - - - NW 13 15 7 8 - - -
03/09:00am - - - - - NW 15 20 8 11 - - -
03/08:30am - - - - - WNW 13 17 7 9 - - -
03/08:00am - - - - - WNW 13 17 7 9 - - -
03/07:30am - - - - - W 15 20 8 11 - - -
03/07:00am - - - - - W 13 17 7 9 - - -
03/06:30am - - - - - W 15 20 8 11 - - -
03/06:00am - - - - - WSW 17 20 9 11 - - -
03/05:30am - - - - - W 17 22 9 12 - - -
03/05:00am - - - - - WSW 19 26 10 14 - - -
03/04:30am - - - - - WSW 19 24 10 13 - - -
03/04:00am - - - - - WSW 15 20 8 11 - - -
03/03:30am - - - - - SW 22 26 12 14 - - -
03/03:00am - - - - - WSW 22 28 12 15 - - -
03/02:30am - - - - - SW 15 20 8 11 - - -
03/02:00am - - - - - SW 20 26 11 14 - - -
03/01:30am - - - - - WSW 19 24 10 13 - - -
03/01:00am - - - - - WSW 22 28 12 15 - - -
03/12:30am - - - - - WSW 22 30 12 16 - - -
03/12:00am - - - - - SW 22 30 12 16 - - -
 
Date/Time
EST
Tmp

°C
App
Tmp
°C
Dew
Point
°C
Rel
Hum
%
Delta-T

°C
Wind Press
QNH
hPa
Press
MSL
hPa
Rain
since
9 am
mm
Dir
 
Spd
km/h
Gust
km/h
Spd
kts
Gust
kts
02/11:30pm - - - - - SW 28 35 15 19 - - -
02/11:00pm - - - - - SW 22 30 12 16 - - -
02/10:30pm - - - - - SW 22 28 12 15 - - -
02/10:00pm - - - - - WSW 20 22 11 12 - - -
02/09:30pm - - - - - SW 22 28 12 15 - - -
02/09:00pm - - - - - SSW 24 28 13 15 - - -
02/08:30pm - - - - - SW 28 33 15 18 - - -
02/08:00pm - - - - - SW 33 43 18 23 - - -
02/07:30pm - - - - - SW 32 35 17 19 - - -
02/07:00pm - - - - - SW 26 30 14 16 - - -
02/06:30pm - - - - - S 33 41 18 22 - - -
02/06:00pm - - - - - SSW 32 41 17 22 - - -
02/05:30pm - - - - - SSW 32 39 17 21 - - -
02/05:00pm - - - - - S 39 46 21 25 - - -
02/04:30pm - - - - - SSW 32 41 17 22 - - -
02/04:00pm - - - - - SSW 32 39 17 21 - - -
02/03:30pm - - - - - SSW 39 46 21 25 - - -
02/03:00pm - - - - - S 39 44 21 24 - - -
02/02:30pm - - - - - S 28 35 15 19 - - -
02/02:13pm - - - - - S 37 50 20 27 - - -
02/02:08pm - - - - - SSW 32 50 17 27 - - -
02/02:00pm - - - - - SSW 35 46 19 25 - - -
02/01:55pm - - - - - SSW 43 61 23 33 - - -
02/01:42pm - - - - - SSW 37 67 20 36 - - -
02/01:40pm - - - - - SSW 32 50 17 27 - - -
02/01:30pm - - - - - SSW 35 44 19 24 - - -
02/01:00pm - - - - - SSW 43 50 23 27 - - -
02/12:30pm - - - - - SSW 41 52 22 28 - - -
02/12:00pm - - - - - SW 48 61 26 33 - - -
02/11:30am - - - - - SSW 54 63 29 34 - - -
02/11:00am - - - - - SW 46 63 25 34 - - -
02/10:30am - - - - - WSW 44 52 24 28 - - -
02/10:13am - - - - - SW 44 57 24 31 - - -
02/10:00am - - - - - SSW 50 63 27 34 - - -
02/09:33am - - - - - SW 44 63 24 34 - - -
02/09:30am - - - - - SW 46 63 25 34 - - -
02/09:20am - - - - - WSW 43 61 23 33 - - -
02/09:00am - - - - - WSW 41 50 22 27 - - -
02/08:30am - - - - - WSW 41 57 22 31 - - -
02/08:00am - - - - - W 32 43 17 23 - - -
02/07:30am - - - - - W 30 35 16 19 - - -
02/07:00am - - - - - W 32 39 17 21 - - -
02/06:30am - - - - - W 37 44 20 24 - - -
02/06:00am - - - - - WSW 35 44 19 24 - - -
02/05:30am - - - - - WSW 35 44 19 24 - - -
02/05:00am - - - - - W 30 39 16 21 - - -
02/04:30am - - - - - W 28 32 15 17 - - -
02/04:00am - - - - - W 28 35 15 19 - - -
02/03:30am - - - - - WNW 32 44 17 24 - - -
02/03:00am - - - - - WNW 33 44 18 24 - - -
02/02:30am - - - - - NW 32 39 17 21 - - -
02/02:00am - - - - - NW 32 39 17 21 - - -
02/01:30am - - - - - NW 37 43 20 23 - - -
02/01:00am - - - - - NNW 28 32 15 17 - - -
02/12:30am - - - - - NNW 30 33 16 18 - - -
02/12:00am - - - - - NNW 30 35 16 19 - - -
 
Date/Time
EST
Tmp

°C
App
Tmp
°C
Dew
Point
°C
Rel
Hum
%
Delta-T

°C
Wind Press
QNH
hPa
Press
MSL
hPa
Rain
since
9 am
mm
Dir
 
Spd
km/h
Gust
km/h
Spd
kts
Gust
kts
01/11:30pm - - - - - NNW 35 41 19 22 - - -
01/11:00pm - - - - - NNW 32 41 17 22 - - -
01/10:30pm - - - - - NNW 30 35 16 19 - - -
01/10:00pm - - - - - NW 32 41 17 22 - - -
01/09:30pm - - - - - NW 33 41 18 22 - - -
01/09:00pm - - - - - NNW 32 41 17 22 - - -
01/08:30pm - - - - - NNW 37 44 20 24 - - -
01/08:00pm - - - - - NNW 39 46 21 25 - - -
01/07:30pm - - - - - NW 33 39 18 21 - - -
01/07:00pm - - - - - NNW 30 39 16 21 - - -
01/06:30pm - - - - - NNW 26 35 14 19 - - -
01/06:00pm - - - - - NNW 30 33 16 18 - - -
01/05:30pm - - - - - NNW 30 35 16 19 - - -
01/05:00pm - - - - - NW 28 33 15 18 - - -
01/04:30pm - - - - - WNW 28 33 15 18 - - -
01/04:00pm - - - - - WNW 30 33 16 18 - - -
01/03:30pm - - - - - WNW 28 32 15 17 - - -
01/03:00pm - - - - - NW 28 33 15 18 - - -
01/02:30pm - - - - - WNW 32 39 17 21 - - -
01/02:00pm - - - - - WNW 30 35 16 19 - - -
01/01:30pm - - - - - WNW 28 33 15 18 - - -

Latest Capital City Observations: Canberra | Sydney | Melbourne | Brisbane | Adelaide | Perth | Hobart | Darwin

Other Formats:

Comma delimited format used in spreadsheet applications
http://www.bom.gov.au/fwo/IDV60901/IDV60901.95872.axf

JavaScript Object Notation format (JSON) in row-major order
http://www.bom.gov.au/fwo/IDV60901/IDV60901.95872.json